sensor_id;sensor_type;location;lat;lon;timestamp;P1;durP1;ratioP1;P2;durP2;ratioP2
20621;SDS011;10470;42.670;23.354;2022-08-16T00:01:07;12.50;;;9.87;;
20621;SDS011;10470;42.670;23.354;2022-08-16T00:03:33;12.43;;;10.10;;
20621;SDS011;10470;42.670;23.354;2022-08-16T00:05:59;12.60;;;10.13;;
20621;SDS011;10470;42.670;23.354;2022-08-16T00:08:24;12.97;;;10.00;;
20621;SDS011;10470;42.670;23.354;2022-08-16T00:10:50;12.53;;;10.00;;
20621;SDS011;10470;42.670;23.354;2022-08-16T00:13:16;12.33;;;9.73;;
20621;SDS011;10470;42.670;23.354;2022-08-16T00:15:43;14.37;;;9.73;;
20621;SDS011;10470;42.670;23.354;2022-08-16T00:18:12;11.87;;;9.93;;
20621;SDS011;10470;42.670;23.354;2022-08-16T00:20:40;12.00;;;9.53;;
20621;SDS011;10470;42.670;23.354;2022-08-16T00:23:07;12.93;;;10.40;;
20621;SDS011;10470;42.670;23.354;2022-08-16T00:25:32;11.10;;;9.23;;
20621;SDS011;10470;42.670;23.354;2022-08-16T00:27:58;9.90;;;8.50;;
20621;SDS011;10470;42.670;23.354;2022-08-16T00:30:23;11.33;;;9.60;;
20621;SDS011;10470;42.670;23.354;2022-08-16T00:32:51;14.33;;;9.60;;
20621;SDS011;10470;42.670;23.354;2022-08-16T00:35:19;13.03;;;9.17;;
20621;SDS011;10470;42.670;23.354;2022-08-16T00:37:47;12.10;;;9.40;;
20621;SDS011;10470;42.670;23.354;2022-08-16T00:40:15;12.60;;;9.30;;
20621;SDS011;10470;42.670;23.354;2022-08-16T00:42:44;12.77;;;9.57;;
20621;SDS011;10470;42.670;23.354;2022-08-16T00:48:03;11.23;;;8.57;;
20621;SDS011;10470;42.670;23.354;2022-08-16T00:50:31;10.70;;;8.60;;
20621;SDS011;10470;42.670;23.354;2022-08-16T00:52:58;9.93;;;8.50;;
20621;SDS011;10470;42.670;23.354;2022-08-16T00:55:24;9.40;;;7.93;;
20621;SDS011;10470;42.670;23.354;2022-08-16T00:57:52;11.07;;;9.40;;
20621;SDS011;10470;42.670;23.354;2022-08-16T01:00:20;10.70;;;8.90;;
20621;SDS011;10470;42.670;23.354;2022-08-16T01:02:49;11.27;;;8.77;;
20621;SDS011;10470;42.670;23.354;2022-08-16T01:05:15;11.00;;;9.03;;
20621;SDS011;10470;42.670;23.354;2022-08-16T01:07:41;11.73;;;9.03;;
20621;SDS011;10470;42.670;23.354;2022-08-16T01:10:08;10.70;;;8.63;;
20621;SDS011;10470;42.670;23.354;2022-08-16T01:12:34;11.10;;;8.93;;
20621;SDS011;10470;42.670;23.354;2022-08-16T01:15:00;10.47;;;9.13;;
20621;SDS011;10470;42.670;23.354;2022-08-16T01:17:27;11.47;;;9.53;;
20621;SDS011;10470;42.670;23.354;2022-08-16T01:19:56;11.07;;;8.90;;
20621;SDS011;10470;42.670;23.354;2022-08-16T01:25:01;9.90;;;8.30;;
20621;SDS011;10470;42.670;23.354;2022-08-16T01:27:34;10.33;;;8.57;;
20621;SDS011;10470;42.670;23.354;2022-08-16T01:30:05;12.63;;;8.40;;
20621;SDS011;10470;42.670;23.354;2022-08-16T01:32:33;10.10;;;8.53;;
20621;SDS011;10470;42.670;23.354;2022-08-16T01:35:02;8.90;;;7.67;;
20621;SDS011;10470;42.670;23.354;2022-08-16T01:37:36;9.67;;;8.67;;
20621;SDS011;10470;42.670;23.354;2022-08-16T01:40:04;12.23;;;9.23;;
20621;SDS011;10470;42.670;23.354;2022-08-16T01:42:30;10.17;;;8.63;;
20621;SDS011;10470;42.670;23.354;2022-08-16T01:44:56;11.30;;;9.17;;
20621;SDS011;10470;42.670;23.354;2022-08-16T01:47:21;10.47;;;8.60;;
20621;SDS011;10470;42.670;23.354;2022-08-16T01:49:47;10.27;;;9.00;;
20621;SDS011;10470;42.670;23.354;2022-08-16T01:52:13;13.50;;;8.83;;
20621;SDS011;10470;42.670;23.354;2022-08-16T01:54:41;10.73;;;9.20;;
20621;SDS011;10470;42.670;23.354;2022-08-16T01:57:07;10.67;;;8.97;;
20621;SDS011;10470;42.670;23.354;2022-08-16T01:59:33;10.73;;;9.47;;
20621;SDS011;10470;42.670;23.354;2022-08-16T02:01:59;10.77;;;9.37;;
20621;SDS011;10470;42.670;23.354;2022-08-16T02:04:26;11.33;;;9.77;;
20621;SDS011;10470;42.670;23.354;2022-08-16T02:06:52;11.63;;;9.07;;
20621;SDS011;10470;42.670;23.354;2022-08-16T02:09:19;12.83;;;9.73;;
20621;SDS011;10470;42.670;23.354;2022-08-16T02:11:48;11.40;;;8.83;;
20621;SDS011;10470;42.670;23.354;2022-08-16T02:14:16;11.13;;;9.30;;
20621;SDS011;10470;42.670;23.354;2022-08-16T02:16:41;10.00;;;8.80;;
20621;SDS011;10470;42.670;23.354;2022-08-16T02:19:09;12.00;;;9.20;;
20621;SDS011;10470;42.670;23.354;2022-08-16T02:21:37;11.53;;;9.30;;
20621;SDS011;10470;42.670;23.354;2022-08-16T02:24:04;12.80;;;9.90;;
20621;SDS011;10470;42.670;23.354;2022-08-16T02:26:29;11.30;;;9.73;;
20621;SDS011;10470;42.670;23.354;2022-08-16T02:28:55;11.77;;;10.10;;
20621;SDS011;10470;42.670;23.354;2022-08-16T02:31:21;13.23;;;9.77;;
20621;SDS011;10470;42.670;23.354;2022-08-16T02:33:47;12.03;;;10.10;;
20621;SDS011;10470;42.670;23.354;2022-08-16T02:36:13;13.30;;;9.60;;
20621;SDS011;10470;42.670;23.354;2022-08-16T02:38:39;12.70;;;9.97;;
20621;SDS011;10470;42.670;23.354;2022-08-16T02:41:05;12.73;;;10.03;;
20621;SDS011;10470;42.670;23.354;2022-08-16T02:43:32;13.20;;;10.07;;
20621;SDS011;10470;42.670;23.354;2022-08-16T02:46:00;13.90;;;10.27;;
20621;SDS011;10470;42.670;23.354;2022-08-16T02:48:27;14.10;;;10.70;;
20621;SDS011;10470;42.670;23.354;2022-08-16T02:50:52;16.10;;;10.60;;
20621;SDS011;10470;42.670;23.354;2022-08-16T02:53:18;14.70;;;11.00;;
20621;SDS011;10470;42.670;23.354;2022-08-16T02:55:44;14.33;;;10.67;;
20621;SDS011;10470;42.670;23.354;2022-08-16T02:58:10;15.57;;;11.47;;
20621;SDS011;10470;42.670;23.354;2022-08-16T03:00:36;15.23;;;11.63;;
20621;SDS011;10470;42.670;23.354;2022-08-16T03:03:02;14.50;;;11.87;;
20621;SDS011;10470;42.670;23.354;2022-08-16T03:05:28;15.63;;;11.40;;
20621;SDS011;10470;42.670;23.354;2022-08-16T03:07:55;13.50;;;11.30;;
20621;SDS011;10470;42.670;23.354;2022-08-16T03:10:20;15.30;;;11.40;;
20621;SDS011;10470;42.670;23.354;2022-08-16T03:12:46;15.20;;;11.00;;
20621;SDS011;10470;42.670;23.354;2022-08-16T03:15:13;14.13;;;12.17;;
20621;SDS011;10470;42.670;23.354;2022-08-16T03:17:40;15.70;;;11.57;;
20621;SDS011;10470;42.670;23.354;2022-08-16T03:20:06;14.17;;;11.57;;
20621;SDS011;10470;42.670;23.354;2022-08-16T03:22:33;16.37;;;12.13;;
20621;SDS011;10470;42.670;23.354;2022-08-16T03:25:00;17.13;;;11.27;;
20621;SDS011;10470;42.670;23.354;2022-08-16T03:27:29;14.77;;;12.23;;
20621;SDS011;10470;42.670;23.354;2022-08-16T03:29:55;14.63;;;12.03;;
20621;SDS011;10470;42.670;23.354;2022-08-16T03:32:20;15.33;;;12.20;;
20621;SDS011;10470;42.670;23.354;2022-08-16T03:34:46;16.03;;;12.33;;
20621;SDS011;10470;42.670;23.354;2022-08-16T03:37:12;14.70;;;11.47;;
20621;SDS011;10470;42.670;23.354;2022-08-16T03:39:38;15.60;;;12.00;;
20621;SDS011;10470;42.670;23.354;2022-08-16T03:42:03;17.43;;;12.10;;
20621;SDS011;10470;42.670;23.354;2022-08-16T03:44:30;16.00;;;12.47;;
20621;SDS011;10470;42.670;23.354;2022-08-16T03:46:56;16.03;;;12.77;;
20621;SDS011;10470;42.670;23.354;2022-08-16T03:49:22;17.67;;;13.10;;
20621;SDS011;10470;42.670;23.354;2022-08-16T03:51:47;16.70;;;12.47;;
20621;SDS011;10470;42.670;23.354;2022-08-16T03:54:13;18.07;;;12.87;;
20621;SDS011;10470;42.670;23.354;2022-08-16T03:56:39;16.07;;;11.60;;
20621;SDS011;10470;42.670;23.354;2022-08-16T03:59:05;16.10;;;12.60;;
20621;SDS011;10470;42.670;23.354;2022-08-16T04:01:30;15.77;;;12.03;;
20621;SDS011;10470;42.670;23.354;2022-08-16T04:03:56;14.83;;;11.77;;
20621;SDS011;10470;42.670;23.354;2022-08-16T04:06:22;15.20;;;12.27;;
20621;SDS011;10470;42.670;23.354;2022-08-16T04:08:47;16.03;;;11.57;;
20621;SDS011;10470;42.670;23.354;2022-08-16T04:11:13;18.17;;;12.60;;
20621;SDS011;10470;42.670;23.354;2022-08-16T04:13:39;14.40;;;11.30;;
20621;SDS011;10470;42.670;23.354;2022-08-16T04:16:05;12.70;;;11.07;;
20621;SDS011;10470;42.670;23.354;2022-08-16T04:18:30;15.03;;;11.77;;
20621;SDS011;10470;42.670;23.354;2022-08-16T04:20:56;15.60;;;12.30;;
20621;SDS011;10470;42.670;23.354;2022-08-16T04:23:22;16.03;;;12.90;;
20621;SDS011;10470;42.670;23.354;2022-08-16T04:25:47;16.37;;;13.13;;
20621;SDS011;10470;42.670;23.354;2022-08-16T04:28:13;19.37;;;13.90;;
20621;SDS011;10470;42.670;23.354;2022-08-16T04:30:39;20.13;;;14.37;;
20621;SDS011;10470;42.670;23.354;2022-08-16T04:33:05;19.60;;;14.63;;
20621;SDS011;10470;42.670;23.354;2022-08-16T04:35:31;17.63;;;13.90;;
20621;SDS011;10470;42.670;23.354;2022-08-16T04:37:56;18.03;;;13.70;;
20621;SDS011;10470;42.670;23.354;2022-08-16T04:40:23;17.70;;;13.27;;
20621;SDS011;10470;42.670;23.354;2022-08-16T04:42:49;18.17;;;13.07;;
20621;SDS011;10470;42.670;23.354;2022-08-16T04:45:15;19.53;;;13.67;;
20621;SDS011;10470;42.670;23.354;2022-08-16T04:47:42;16.53;;;12.83;;
20621;SDS011;10470;42.670;23.354;2022-08-16T04:50:09;17.97;;;13.47;;
20621;SDS011;10470;42.670;23.354;2022-08-16T04:52:37;15.50;;;12.77;;
20621;SDS011;10470;42.670;23.354;2022-08-16T04:55:07;16.87;;;13.33;;
20621;SDS011;10470;42.670;23.354;2022-08-16T04:57:34;16.87;;;13.03;;
20621;SDS011;10470;42.670;23.354;2022-08-16T05:00:00;17.23;;;13.80;;
20621;SDS011;10470;42.670;23.354;2022-08-16T05:02:26;18.90;;;13.53;;
20621;SDS011;10470;42.670;23.354;2022-08-16T05:04:52;17.33;;;13.60;;
20621;SDS011;10470;42.670;23.354;2022-08-16T05:07:17;17.97;;;13.50;;
20621;SDS011;10470;42.670;23.354;2022-08-16T05:09:43;17.87;;;13.37;;
20621;SDS011;10470;42.670;23.354;2022-08-16T05:12:08;18.10;;;12.93;;
20621;SDS011;10470;42.670;23.354;2022-08-16T05:14:34;17.93;;;13.33;;
20621;SDS011;10470;42.670;23.354;2022-08-16T05:16:59;19.43;;;14.03;;
20621;SDS011;10470;42.670;23.354;2022-08-16T05:19:24;21.37;;;15.63;;
20621;SDS011;10470;42.670;23.354;2022-08-16T05:21:50;18.53;;;13.37;;
20621;SDS011;10470;42.670;23.354;2022-08-16T05:24:15;17.20;;;13.10;;
20621;SDS011;10470;42.670;23.354;2022-08-16T05:26:41;17.97;;;12.80;;
20621;SDS011;10470;42.670;23.354;2022-08-16T05:29:07;14.73;;;12.53;;
20621;SDS011;10470;42.670;23.354;2022-08-16T05:31:32;17.63;;;13.77;;
20621;SDS011;10470;42.670;23.354;2022-08-16T05:33:58;19.23;;;15.10;;
20621;SDS011;10470;42.670;23.354;2022-08-16T05:36:25;18.50;;;13.70;;
20621;SDS011;10470;42.670;23.354;2022-08-16T05:38:51;17.30;;;13.30;;
20621;SDS011;10470;42.670;23.354;2022-08-16T05:41:16;17.27;;;13.30;;
20621;SDS011;10470;42.670;23.354;2022-08-16T05:43:43;18.50;;;13.90;;
20621;SDS011;10470;42.670;23.354;2022-08-16T05:46:10;19.47;;;14.07;;
20621;SDS011;10470;42.670;23.354;2022-08-16T05:48:36;17.80;;;12.93;;
20621;SDS011;10470;42.670;23.354;2022-08-16T05:51:02;18.50;;;13.57;;
20621;SDS011;10470;42.670;23.354;2022-08-16T05:53:27;17.03;;;13.50;;
20621;SDS011;10470;42.670;23.354;2022-08-16T05:55:53;16.37;;;12.60;;
20621;SDS011;10470;42.670;23.354;2022-08-16T05:58:18;16.60;;;12.37;;
20621;SDS011;10470;42.670;23.354;2022-08-16T06:00:44;17.33;;;13.50;;
20621;SDS011;10470;42.670;23.354;2022-08-16T06:03:09;14.23;;;11.73;;
20621;SDS011;10470;42.670;23.354;2022-08-16T06:05:34;15.53;;;12.27;;
20621;SDS011;10470;42.670;23.354;2022-08-16T06:08:00;19.93;;;14.53;;
20621;SDS011;10470;42.670;23.354;2022-08-16T06:10:25;16.73;;;13.10;;
20621;SDS011;10470;42.670;23.354;2022-08-16T06:12:51;17.40;;;13.83;;
20621;SDS011;10470;42.670;23.354;2022-08-16T06:15:18;19.30;;;13.73;;
20621;SDS011;10470;42.670;23.354;2022-08-16T06:17:44;18.17;;;13.20;;
20621;SDS011;10470;42.670;23.354;2022-08-16T06:20:12;19.87;;;14.30;;
20621;SDS011;10470;42.670;23.354;2022-08-16T06:22:42;18.23;;;14.20;;
20621;SDS011;10470;42.670;23.354;2022-08-16T06:25:09;19.53;;;14.20;;
20621;SDS011;10470;42.670;23.354;2022-08-16T06:27:39;19.07;;;13.70;;
20621;SDS011;10470;42.670;23.354;2022-08-16T06:30:08;19.67;;;15.70;;
20621;SDS011;10470;42.670;23.354;2022-08-16T06:32:35;21.20;;;15.97;;
20621;SDS011;10470;42.670;23.354;2022-08-16T06:35:01;16.80;;;13.33;;
20621;SDS011;10470;42.670;23.354;2022-08-16T06:37:26;17.03;;;12.67;;
20621;SDS011;10470;42.670;23.354;2022-08-16T06:39:52;16.67;;;12.47;;
20621;SDS011;10470;42.670;23.354;2022-08-16T06:42:17;18.23;;;13.53;;
20621;SDS011;10470;42.670;23.354;2022-08-16T06:44:43;21.30;;;12.30;;
20621;SDS011;10470;42.670;23.354;2022-08-16T06:47:08;15.03;;;11.87;;
20621;SDS011;10470;42.670;23.354;2022-08-16T06:49:34;15.00;;;12.10;;
20621;SDS011;10470;42.670;23.354;2022-08-16T06:51:59;15.67;;;11.40;;
20621;SDS011;10470;42.670;23.354;2022-08-16T06:54:25;15.40;;;12.10;;
20621;SDS011;10470;42.670;23.354;2022-08-16T06:56:50;16.73;;;12.03;;
20621;SDS011;10470;42.670;23.354;2022-08-16T06:59:15;17.07;;;12.73;;
20621;SDS011;10470;42.670;23.354;2022-08-16T07:01:41;15.83;;;12.13;;
20621;SDS011;10470;42.670;23.354;2022-08-16T07:04:07;14.67;;;12.07;;
20621;SDS011;10470;42.670;23.354;2022-08-16T07:06:32;14.17;;;11.73;;
20621;SDS011;10470;42.670;23.354;2022-08-16T07:08:58;14.67;;;12.03;;
20621;SDS011;10470;42.670;23.354;2022-08-16T07:11:23;15.73;;;11.80;;
20621;SDS011;10470;42.670;23.354;2022-08-16T07:13:50;17.57;;;11.83;;
20621;SDS011;10470;42.670;23.354;2022-08-16T07:16:16;13.10;;;11.03;;
20621;SDS011;10470;42.670;23.354;2022-08-16T07:18:45;14.63;;;11.50;;
20621;SDS011;10470;42.670;23.354;2022-08-16T07:21:12;15.07;;;11.60;;
20621;SDS011;10470;42.670;23.354;2022-08-16T07:23:42;14.53;;;11.47;;
20621;SDS011;10470;42.670;23.354;2022-08-16T07:26:18;13.73;;;11.40;;
20621;SDS011;10470;42.670;23.354;2022-08-16T07:28:47;14.13;;;11.30;;
20621;SDS011;10470;42.670;23.354;2022-08-16T07:31:12;15.37;;;11.50;;
20621;SDS011;10470;42.670;23.354;2022-08-16T07:33:39;15.07;;;11.20;;
20621;SDS011;10470;42.670;23.354;2022-08-16T07:36:05;15.17;;;11.23;;
20621;SDS011;10470;42.670;23.354;2022-08-16T07:38:32;13.83;;;11.00;;
20621;SDS011;10470;42.670;23.354;2022-08-16T07:40:58;13.03;;;10.57;;
20621;SDS011;10470;42.670;23.354;2022-08-16T07:43:24;14.57;;;11.20;;
20621;SDS011;10470;42.670;23.354;2022-08-16T07:45:50;14.30;;;11.03;;
20621;SDS011;10470;42.670;23.354;2022-08-16T07:48:16;14.17;;;10.67;;
20621;SDS011;10470;42.670;23.354;2022-08-16T07:50:42;16.87;;;11.87;;
20621;SDS011;10470;42.670;23.354;2022-08-16T07:53:08;14.53;;;11.00;;
20621;SDS011;10470;42.670;23.354;2022-08-16T07:55:33;13.00;;;10.40;;
20621;SDS011;10470;42.670;23.354;2022-08-16T07:58:00;14.73;;;10.60;;
20621;SDS011;10470;42.670;23.354;2022-08-16T08:00:25;12.40;;;10.00;;
20621;SDS011;10470;42.670;23.354;2022-08-16T08:02:51;12.47;;;10.03;;
20621;SDS011;10470;42.670;23.354;2022-08-16T08:05:17;12.47;;;10.77;;
20621;SDS011;10470;42.670;23.354;2022-08-16T08:07:43;14.40;;;10.67;;
20621;SDS011;10470;42.670;23.354;2022-08-16T08:10:08;13.47;;;10.27;;
20621;SDS011;10470;42.670;23.354;2022-08-16T08:12:34;13.27;;;10.00;;
20621;SDS011;10470;42.670;23.354;2022-08-16T08:15:00;13.93;;;9.87;;
20621;SDS011;10470;42.670;23.354;2022-08-16T08:17:27;13.07;;;10.83;;
20621;SDS011;10470;42.670;23.354;2022-08-16T08:19:54;13.47;;;10.67;;
20621;SDS011;10470;42.670;23.354;2022-08-16T08:22:19;13.50;;;9.80;;
20621;SDS011;10470;42.670;23.354;2022-08-16T08:24:46;12.30;;;9.67;;
20621;SDS011;10470;42.670;23.354;2022-08-16T08:27:12;14.27;;;10.27;;
20621;SDS011;10470;42.670;23.354;2022-08-16T08:29:39;10.40;;;9.10;;
20621;SDS011;10470;42.670;23.354;2022-08-16T08:32:05;11.23;;;8.33;;
20621;SDS011;10470;42.670;23.354;2022-08-16T08:34:33;10.00;;;8.50;;
20621;SDS011;10470;42.670;23.354;2022-08-16T08:36:58;9.80;;;7.77;;
20621;SDS011;10470;42.670;23.354;2022-08-16T08:39:24;11.03;;;7.47;;
20621;SDS011;10470;42.670;23.354;2022-08-16T08:41:49;9.30;;;6.73;;
20621;SDS011;10470;42.670;23.354;2022-08-16T08:44:16;9.30;;;7.63;;
20621;SDS011;10470;42.670;23.354;2022-08-16T08:46:42;7.07;;;6.20;;
20621;SDS011;10470;42.670;23.354;2022-08-16T08:49:07;7.37;;;5.97;;
20621;SDS011;10470;42.670;23.354;2022-08-16T08:51:33;7.10;;;6.03;;
20621;SDS011;10470;42.670;23.354;2022-08-16T08:53:59;13.80;;;10.83;;
20621;SDS011;10470;42.670;23.354;2022-08-16T08:56:25;6.67;;;5.77;;
20621;SDS011;10470;42.670;23.354;2022-08-16T08:58:54;5.77;;;5.17;;
20621;SDS011;10470;42.670;23.354;2022-08-16T09:01:28;6.03;;;5.43;;
20621;SDS011;10470;42.670;23.354;2022-08-16T09:03:56;5.37;;;4.87;;
20621;SDS011;10470;42.670;23.354;2022-08-16T09:06:21;5.33;;;4.83;;
20621;SDS011;10470;42.670;23.354;2022-08-16T09:08:47;5.27;;;4.77;;
20621;SDS011;10470;42.670;23.354;2022-08-16T09:11:12;5.37;;;4.87;;
20621;SDS011;10470;42.670;23.354;2022-08-16T09:13:38;4.63;;;4.23;;
20621;SDS011;10470;42.670;23.354;2022-08-16T09:16:04;5.20;;;4.63;;
20621;SDS011;10470;42.670;23.354;2022-08-16T09:18:30;5.30;;;4.80;;
20621;SDS011;10470;42.670;23.354;2022-08-16T09:20:56;4.57;;;4.17;;
20621;SDS011;10470;42.670;23.354;2022-08-16T09:23:23;5.80;;;5.20;;
20621;SDS011;10470;42.670;23.354;2022-08-16T09:25:49;6.17;;;5.03;;
20621;SDS011;10470;42.670;23.354;2022-08-16T09:28:16;6.00;;;5.40;;
20621;SDS011;10470;42.670;23.354;2022-08-16T09:30:42;5.30;;;4.80;;
20621;SDS011;10470;42.670;23.354;2022-08-16T09:33:08;5.77;;;5.17;;
20621;SDS011;10470;42.670;23.354;2022-08-16T09:35:35;6.93;;;5.30;;
20621;SDS011;10470;42.670;23.354;2022-08-16T09:38:02;7.50;;;5.43;;
20621;SDS011;10470;42.670;23.354;2022-08-16T09:40:28;5.27;;;4.77;;
20621;SDS011;10470;42.670;23.354;2022-08-16T09:42:53;6.17;;;5.57;;
20621;SDS011;10470;42.670;23.354;2022-08-16T09:45:21;7.47;;;5.60;;
20621;SDS011;10470;42.670;23.354;2022-08-16T09:47:47;5.70;;;5.20;;
20621;SDS011;10470;42.670;23.354;2022-08-16T09:50:18;5.20;;;4.70;;
20621;SDS011;10470;42.670;23.354;2022-08-16T09:52:44;5.87;;;5.27;;
20621;SDS011;10470;42.670;23.354;2022-08-16T09:55:10;4.90;;;4.47;;
20621;SDS011;10470;42.670;23.354;2022-08-16T09:57:36;5.60;;;5.10;;
20621;SDS011;10470;42.670;23.354;2022-08-16T10:00:03;6.70;;;5.40;;
20621;SDS011;10470;42.670;23.354;2022-08-16T10:02:31;5.43;;;4.93;;
20621;SDS011;10470;42.670;23.354;2022-08-16T10:04:57;5.17;;;4.67;;
20621;SDS011;10470;42.670;23.354;2022-08-16T10:07:24;5.40;;;4.90;;
20621;SDS011;10470;42.670;23.354;2022-08-16T10:09:51;5.17;;;4.67;;
20621;SDS011;10470;42.670;23.354;2022-08-16T10:12:16;5.20;;;4.70;;
20621;SDS011;10470;42.670;23.354;2022-08-16T10:15:01;5.10;;;4.60;;
20621;SDS011;10470;42.670;23.354;2022-08-16T10:17:28;5.20;;;4.70;;
20621;SDS011;10470;42.670;23.354;2022-08-16T10:19:53;7.00;;;4.73;;
20621;SDS011;10470;42.670;23.354;2022-08-16T10:22:19;7.67;;;5.33;;
20621;SDS011;10470;42.670;23.354;2022-08-16T10:24:45;4.80;;;4.27;;
20621;SDS011;10470;42.670;23.354;2022-08-16T10:27:11;4.90;;;4.40;;
20621;SDS011;10470;42.670;23.354;2022-08-16T10:29:36;4.60;;;4.27;;
20621;SDS011;10470;42.670;23.354;2022-08-16T10:32:02;4.90;;;4.50;;
20621;SDS011;10470;42.670;23.354;2022-08-16T10:34:28;5.27;;;4.70;;
20621;SDS011;10470;42.670;23.354;2022-08-16T10:36:53;4.70;;;4.30;;
20621;SDS011;10470;42.670;23.354;2022-08-16T10:39:19;5.80;;;5.20;;
20621;SDS011;10470;42.670;23.354;2022-08-16T10:41:44;4.70;;;4.30;;
20621;SDS011;10470;42.670;23.354;2022-08-16T10:44:10;5.40;;;4.90;;
20621;SDS011;10470;42.670;23.354;2022-08-16T10:46:38;5.43;;;4.93;;
20621;SDS011;10470;42.670;23.354;2022-08-16T10:49:03;5.10;;;4.50;;
20621;SDS011;10470;42.670;23.354;2022-08-16T10:51:29;5.30;;;4.70;;
20621;SDS011;10470;42.670;23.354;2022-08-16T10:53:56;5.27;;;4.57;;
20621;SDS011;10470;42.670;23.354;2022-08-16T10:56:22;5.57;;;5.07;;
20621;SDS011;10470;42.670;23.354;2022-08-16T10:58:50;5.60;;;4.83;;
20621;SDS011;10470;42.670;23.354;2022-08-16T11:17:30;4.53;;;4.22;;
20621;SDS011;10470;42.670;23.354;2022-08-16T11:19:56;4.87;;;4.37;;
20621;SDS011;10470;42.670;23.354;2022-08-16T11:22:22;4.33;;;4.03;;
20621;SDS011;10470;42.670;23.354;2022-08-16T11:24:47;5.03;;;4.60;;
20621;SDS011;10470;42.670;23.354;2022-08-16T11:27:14;5.00;;;4.60;;
20621;SDS011;10470;42.670;23.354;2022-08-16T11:29:42;5.00;;;4.60;;
20621;SDS011;10470;42.670;23.354;2022-08-16T11:32:07;5.17;;;4.77;;
20621;SDS011;10470;42.670;23.354;2022-08-16T11:34:32;6.25;;;4.85;;
20621;SDS011;10470;42.670;23.354;2022-08-16T11:36:58;5.43;;;4.90;;
20621;SDS011;10470;42.670;23.354;2022-08-16T11:39:25;6.77;;;5.00;;
20621;SDS011;10470;42.670;23.354;2022-08-16T11:41:51;5.53;;;5.03;;
20621;SDS011;10470;42.670;23.354;2022-08-16T11:44:16;4.93;;;4.30;;
20621;SDS011;10470;42.670;23.354;2022-08-16T11:46:41;5.37;;;4.87;;
20621;SDS011;10470;42.670;23.354;2022-08-16T11:49:07;6.83;;;5.27;;
20621;SDS011;10470;42.670;23.354;2022-08-16T11:51:32;5.70;;;4.80;;
20621;SDS011;10470;42.670;23.354;2022-08-16T11:53:58;7.10;;;4.80;;
20621;SDS011;10470;42.670;23.354;2022-08-16T11:56:23;5.97;;;5.23;;
20621;SDS011;10470;42.670;23.354;2022-08-16T11:58:49;5.07;;;4.57;;
20621;SDS011;10470;42.670;23.354;2022-08-16T12:01:15;6.63;;;4.70;;
20621;SDS011;10470;42.670;23.354;2022-08-16T12:03:41;5.27;;;4.50;;
20621;SDS011;10470;42.670;23.354;2022-08-16T12:06:12;5.23;;;4.60;;
20621;SDS011;10470;42.670;23.354;2022-08-16T12:08:42;4.40;;;4.00;;
20621;SDS011;10470;42.670;23.354;2022-08-16T12:11:09;4.60;;;3.70;;
20621;SDS011;10470;42.670;23.354;2022-08-16T12:13:36;4.87;;;4.13;;
20621;SDS011;10470;42.670;23.354;2022-08-16T12:16:02;5.47;;;4.70;;
20621;SDS011;10470;42.670;23.354;2022-08-16T12:18:29;6.40;;;4.57;;
20621;SDS011;10470;42.670;23.354;2022-08-16T12:20:55;5.80;;;4.53;;
20621;SDS011;10470;42.670;23.354;2022-08-16T12:23:21;5.10;;;4.60;;
20621;SDS011;10470;42.670;23.354;2022-08-16T12:25:47;4.87;;;4.37;;
20621;SDS011;10470;42.670;23.354;2022-08-16T12:28:12;4.50;;;4.10;;
20621;SDS011;10470;42.670;23.354;2022-08-16T12:30:39;5.17;;;4.37;;
20621;SDS011;10470;42.670;23.354;2022-08-16T12:33:10;4.93;;;4.50;;
20621;SDS011;10470;42.670;23.354;2022-08-16T12:35:40;5.03;;;4.63;;
20621;SDS011;10470;42.670;23.354;2022-08-16T12:38:07;4.73;;;4.33;;
20621;SDS011;10470;42.670;23.354;2022-08-16T12:40:34;4.67;;;4.27;;
20621;SDS011;10470;42.670;23.354;2022-08-16T12:43:03;5.97;;;5.10;;
20621;SDS011;10470;42.670;23.354;2022-08-16T12:45:31;8.77;;;6.13;;
20621;SDS011;10470;42.670;23.354;2022-08-16T12:47:59;6.10;;;5.50;;
20621;SDS011;10470;42.670;23.354;2022-08-16T12:50:44;6.30;;;4.97;;
20621;SDS011;10470;42.670;23.354;2022-08-16T12:53:11;5.90;;;5.30;;
20621;SDS011;10470;42.670;23.354;2022-08-16T12:55:37;5.27;;;4.77;;
20621;SDS011;10470;42.670;23.354;2022-08-16T12:58:03;8.77;;;5.83;;
20621;SDS011;10470;42.670;23.354;2022-08-16T13:00:30;5.90;;;5.30;;
20621;SDS011;10470;42.670;23.354;2022-08-16T13:02:56;5.97;;;5.43;;
20621;SDS011;10470;42.670;23.354;2022-08-16T13:05:23;6.40;;;5.30;;
20621;SDS011;10470;42.670;23.354;2022-08-16T13:07:50;6.10;;;5.50;;
20621;SDS011;10470;42.670;23.354;2022-08-16T13:10:16;7.27;;;5.53;;
20621;SDS011;10470;42.670;23.354;2022-08-16T13:12:45;6.77;;;6.07;;
20621;SDS011;10470;42.670;23.354;2022-08-16T13:15:16;6.47;;;5.60;;
20621;SDS011;10470;42.670;23.354;2022-08-16T13:17:43;6.03;;;5.10;;
20621;SDS011;10470;42.670;23.354;2022-08-16T13:20:10;6.10;;;5.00;;
20621;SDS011;10470;42.670;23.354;2022-08-16T13:22:43;4.47;;;3.93;;
20621;SDS011;10470;42.670;23.354;2022-08-16T13:25:13;4.43;;;4.03;;
20621;SDS011;10470;42.670;23.354;2022-08-16T13:27:40;4.67;;;4.23;;
20621;SDS011;10470;42.670;23.354;2022-08-16T13:30:06;3.97;;;3.63;;
20621;SDS011;10470;42.670;23.354;2022-08-16T13:32:32;4.50;;;4.13;;
20621;SDS011;10470;42.670;23.354;2022-08-16T13:34:58;5.00;;;4.47;;
20621;SDS011;10470;42.670;23.354;2022-08-16T13:37:23;3.92;;;3.53;;
20621;SDS011;10470;42.670;23.354;2022-08-16T13:39:49;3.70;;;3.33;;
20621;SDS011;10470;42.670;23.354;2022-08-16T13:42:14;3.83;;;3.50;;
20621;SDS011;10470;42.670;23.354;2022-08-16T13:44:45;4.13;;;3.35;;
20621;SDS011;10470;42.670;23.354;2022-08-16T13:47:11;3.58;;;2.90;;
20621;SDS011;10470;42.670;23.354;2022-08-16T13:49:37;3.35;;;3.05;;
20621;SDS011;10470;42.670;23.354;2022-08-16T13:52:03;3.20;;;2.90;;
20621;SDS011;10470;42.670;23.354;2022-08-16T13:54:29;4.43;;;2.95;;
20621;SDS011;10470;42.670;23.354;2022-08-16T13:56:54;3.45;;;2.92;;
20621;SDS011;10470;42.670;23.354;2022-08-16T13:59:20;3.03;;;2.83;;
20621;SDS011;10470;42.670;23.354;2022-08-16T14:01:46;3.95;;;3.25;;
20621;SDS011;10470;42.670;23.354;2022-08-16T14:04:17;3.53;;;2.45;;
20621;SDS011;10470;42.670;23.354;2022-08-16T14:06:43;4.85;;;2.60;;
20621;SDS011;10470;42.670;23.354;2022-08-16T14:09:09;3.60;;;2.75;;
20621;SDS011;10470;42.670;23.354;2022-08-16T14:11:35;4.10;;;3.50;;
20621;SDS011;10470;42.670;23.354;2022-08-16T14:14:01;3.27;;;2.97;;
20621;SDS011;10470;42.670;23.354;2022-08-16T14:16:28;3.13;;;2.83;;
20621;SDS011;10470;42.670;23.354;2022-08-16T14:18:53;5.50;;;3.22;;
20621;SDS011;10470;42.670;23.354;2022-08-16T14:21:19;2.95;;;2.65;;
20621;SDS011;10470;42.670;23.354;2022-08-16T14:23:46;2.90;;;2.60;;
20621;SDS011;10470;42.670;23.354;2022-08-16T14:26:11;3.58;;;2.97;;
20621;SDS011;10470;42.670;23.354;2022-08-16T14:28:37;5.20;;;3.20;;
20621;SDS011;10470;42.670;23.354;2022-08-16T14:31:02;3.45;;;2.97;;
20621;SDS011;10470;42.670;23.354;2022-08-16T14:33:28;5.03;;;2.90;;
20621;SDS011;10470;42.670;23.354;2022-08-16T14:35:53;3.58;;;3.28;;
20621;SDS011;10470;42.670;23.354;2022-08-16T14:38:19;2.90;;;2.70;;